AirNav   Bose Proflight Series 2 Wireless Aviation Headset
 
 1248 users online  

8G8 Koons Airport
Salem, Ohio, USA

GOING TO SALEM?


FAA INFORMATION EFFECTIVE 07 NOVEMBER 2019

Location

FAA Identifier: 8G8
Lat/Long: 40-53-00.2120N 080-52-59.3050W
40-53.003533N 080-52.988417W
40.8833922,-80.8831403
(estimated)
Elevation: 1327 ft. / 404 m (estimated)
Variation: 07W (1985)
From city: 2 miles SW of SALEM, OH
Time zone: UTC -5 (UTC -4 during Daylight Saving Time)
Zip code: 44460

Airport Operations

Airport use: Open to the public
Control tower: no
ARTCC: CLEVELAND CENTER
FSS: CLEVELAND FLIGHT SERVICE STATION
NOTAMs facility: CLE (NOTAM-D service available)
Attendance: DAYLIGHT HOURS
Wind indicator: yes
Segmented circle: no

Airport Communications

CTAF: 122.9

Nearby radio navigation aids

VOR radial/distance  VOR name  Freq  Var
ACOr137/19.7AKRON VOR/DME114.4004W
BSVr075/26.4BRIGGS VOR/DME112.4004W
YNGr204/28.5YOUNGSTOWN VORTAC109.0005W
EWCr285/30.7ELLWOOD CITY VOR/DME115.8008W

 
NDB name  Hdg/Dist  Freq  Var  ID
CASTLE257/22.827209WUCP ..- -.-. .--.
CADIZ016/39.223907WCFX -.-. ..-. -..-

Airport Services

Parking: tiedowns
Airframe service: NONE
Powerplant service: NONE

Runway Information

Runway 9/27

Dimensions: 1850 x 100 ft. / 564 x 30 m
Surface: turf, in good condition
RUNWAY 9  RUNWAY 27
Latitude: 40-53.008667N40-52.998167N
Longitude: 080-53.188833W080-52.787667W
Elevation: 1327.0 ft.1327.0 ft.
Traffic pattern: leftright
Runway end identifier lights: nono
Obstructions: 8 ft. crops, 125 ft. both sides of centerline
RWY 09: OBST CLNS SLOPE 7:1, DUE TO 55-FT TREE, 385-FT FM RWY 09, 55-FT L
70 ft. trees, 50 ft. from runway, 75 ft. left of centerline
RWY 27: OBST CLNS SLOPE 1:1, DUE TO 75-FT TREES 135-FT FM, RWY 27, 60-FT L

Airport Ownership and Management from official FAA records

Ownership: Privately-owned
Owner: DAVID & HARRY KOONS
1760 ST RTE 9
SALEM, OH 44460
Phone 330-337-7303
Manager: DAVID & HARRY KOONS
1760 ST RTE 9
SALEM, OH 44460
Phone 330-337-7303
ADNL CTC: 330-337-1780

Airport Operational Statistics

Aircraft based on the field: 9
Single engine airplanes: 7
Ultralights: 2
    
Aircraft operations: avg 49/week *
98% local general aviation
2% transient general aviation
<1% military
* for 12-month period ending 26 August 2017

Additional Remarks

FOR CD CTC CLEVELAND APCH AT 216-352-2323, WHEN APCH CLSD CTC CLEVELAND ARTCC AT 440-774-0490.
DEER, BIRDS & OTHER WILDLIFE ON & INVOF AIRPORT

Instrument Procedures

There are no published instrument procedures at 8G8.

Some nearby airports with instrument procedures:

38D - Salem Airpark Inc (4 nm N)
3G6 - Tri-City Airport (5 nm W)
4G4 - Youngstown Elser Metro Airport (10 nm NE)
02G - Columbiana County Airport (17 nm SE)
KTSO - Carroll County-Tolson Airport (21 nm SW)
 
Loc | Ops | Rwys | IFR | FBO | Links
Com | Nav | Svcs | Stats | Notes
Area around 8G8 (Koons Airport)
 
Road maps at: MapQuest Bing Google
 
Aerial photo
WARNING: Photo may not be current or correct
Aerial photo of 8G8 (Koons Airport)
Photo by Rick Hunt
Photo taken 22-Mar-2015
looking south.

Do you have a better or more recent aerial photo of Koons Airport that you would like to share? If so, please send us your photo.

 
Sectional chart

 
Airport distance calculator
Flying to Koons Airport? Find the distance to fly.

From to 8G8

Sunrise and sunset
Times for 15-Nov-2019
 Local
(UTC-5)
 Zulu
(UTC)
Morning civil twilight06:4211:42
Sunrise07:1212:12
Sunset17:0522:05
Evening civil twilight17:3422:34

Current date and time
Zulu (UTC)  15-Nov-2019 15:40:29
Local (UTC-5)  15-Nov-2019 10:40:29
 
METAR
KUCP 
23nm E 
151456Z AUTO 29003KT 9SM OVC014 M02/M04 A3030 RMK AO2 SLP289 T10171039 50010
KBVI 
23nm E 
151515Z AUTO 25005KT 7SM OVC011 00/M04 A3028 RMK AO2 T10011040
KYNG 
24nm NE 
151451Z 24005KT 8SM OVC012 M02/M06 A3028 RMK AO2 SLP267 T10171056 50008
KPOV 
26nm NW 
151515Z AUTO 25003KT 10SM BKN011 M01/M05 A3028 RMK AO2 T10121051 PWINO
KCAK 
26nm W 
151451Z 27004KT 6SM HZ OVC010 M01/M04 A3028 RMK AO2 SLP268 BINOVC T10111039 50007
KAKR 
28nm W 
151454Z AUTO 28005KT 8SM BKN013 M01/M05 A3029 RMK AO2 SLP266 T10061050 51005 $
KPJC 
33nm E 
151516Z AUTO 00000KT 7SM BKN017 00/M03 A3030 RMK AO2
KPHD 
35nm SW 
151453Z AUTO 23003KT 5SM HZ OVC011 M02/M05 A3032 RMK AO2 SLP280 I3000 T10221050 50001
KPIT 
36nm SE 
151451Z 28006KT 10SM FEW015 01/M04 A3028 RMK AO2 SLP274 T00061039 50003
KBTP 
43nm E 
151456Z AUTO 28005KT 10SM BKN015 M01/M04 A3029 RMK AO2 SLP276 T10111039 50005 FZRANO
TAF
KBVI 
23nm E 
151123Z 1512/1612 24005KT P6SM SKC FM151800 32006KT P6SM SCT250 FM160200 36006KT P6SM OVC025
KYNG 
24nm NE 
151336Z 1514/1612 28008KT P6SM BKN015 FM152000 28005KT P6SM BKN015 FM160100 29004KT P6SM BKN020 FM160800 04006KT P6SM BKN020
KCAK 
26nm W 
151142Z 1512/1612 26009KT 6SM BR BKN012 FM151400 27007KT P6SM BKN025 TEMPO 1514/1517 SCT025 FM151700 26006KT P6SM SCT250 FM152100 29005KT P6SM BKN025 FM160100 32004KT P6SM BKN015 FM160400 36006KT P6SM BKN020 FM161100 05006KT P6SM SCT020
NOTAMs
Click for the latest NOTAMs
NOTAMs are issued by the DoD/FAA and will open in a separate window not controlled by AirNav.

 

 
 

Would you like to see your business listed on this page?

 If your business provides an interesting product or service to pilots, flight crews, aircraft, or users of the Koons Airport, you should consider listing it here.  To start the listing process, click on the button below
 
Add a business
 

Other Pages about Koons Airport

Update a link
 
Copyright © AirNav, LLC. All rights reserved. Privacy Policy  Contact